Time;durP1;ratioP1;P1;durP2;ratioP2;P2;SDS_P1;SDS_P2;PMS_P1;PMS_P2;Temp;Humidity;BMP_temperature;BMP_pressure;BME280_temperature;BME280_humidity;BME280_pressure;Samples;Min_cycle;Max_cycle;Signal;HPM_P1;HPM_P2
2022/03/17 00:01:03;;;;;;;15.88;12.73;;;;;;;10.25;70.41;101774.13;5037069;28;20431;-88
2022/03/17 00:03:28;;;;;;;14.20;11.50;;;;;;;10.18;70.57;101768.59;5036783;28;20029;-88
2022/03/17 00:05:54;;;;;;;17.13;13.30;;;;;;;10.17;71.05;101772.34;5036801;28;20033;-88
2022/03/17 00:08:23;;;;;;;19.63;14.13;;;;;;;10.09;70.95;101767.88;5054840;28;20032;-88
2022/03/17 00:10:49;;;;;;;17.17;13.40;;;;;;;10.06;71.07;101768.25;5037228;28;20025;-88
2022/03/17 00:13:18;;;;;;;16.20;12.50;;;;;;;10.09;70.29;101753.47;5037150;28;20027;-88
2022/03/17 00:15:43;;;;;;;14.85;12.05;;;;;;;10.12;70.79;101769.38;5055620;28;20025;-88
2022/03/17 00:18:09;;;;;;;15.25;12.10;;;;;;;10.06;71.30;101762.81;5036835;28;20504;-88
2022/03/17 00:20:37;;;;;;;16.73;12.80;;;;;;;10.07;71.09;101759.09;5036876;28;20054;-88
2022/03/17 00:23:04;;;;;;;15.93;12.32;;;;;;;10.09;71.07;101773.28;5054896;28;20472;-88
2022/03/17 00:25:30;;;;;;;16.40;12.88;;;;;;;10.05;71.22;101765.72;5021172;28;20029;-89
2022/03/17 00:28:02;;;;;;;17.77;14.50;;;;;;;10.00;72.00;101767.13;5020099;28;20499;-88
2022/03/17 00:30:27;;;;;;;18.98;14.30;;;;;;;9.99;71.28;101764.59;5037963;28;20120;-88
2022/03/17 00:32:55;;;;;;;16.70;12.93;;;;;;;9.97;71.98;101763.97;5036055;28;20171;-87
2022/03/17 00:35:36;;;;;;;17.35;13.50;;;;;;;9.93;72.65;101762.66;5053357;28;20028;-88
2022/03/17 00:38:09;;;;;;;17.77;13.18;;;;;;;9.90;72.60;101769.28;5053819;28;20117;-86
2022/03/17 00:40:39;;;;;;;17.80;13.60;;;;;;;9.79;72.72;101754.34;5036648;28;20037;-87
2022/03/17 00:43:11;;;;;;;16.65;13.02;;;;;;;9.83;72.93;101763.78;5053465;28;20029;-87
2022/03/17 00:45:37;;;;;;;15.18;11.88;;;;;;;9.78;73.02;101771.63;5036727;28;20028;-88
2022/03/17 00:48:05;;;;;;;17.20;13.00;;;;;;;9.79;73.34;101777.91;5036419;28;20540;-87
2022/03/17 00:50:31;;;;;;;16.88;13.43;;;;;;;9.77;73.48;101774.53;5051979;28;20052;-87
2022/03/17 00:53:00;;;;;;;17.60;13.48;;;;;;;9.86;72.70;101786.13;5054008;28;20521;-86
2022/03/17 00:55:28;;;;;;;20.40;14.55;;;;;;;9.86;72.79;101780.69;5020418;28;20041;-86
2022/03/17 00:57:56;;;;;;;18.80;14.95;;;;;;;9.84;73.53;101778.19;5036656;28;20061;-86
2022/03/17 01:00:25;;;;;;;17.20;13.40;;;;;;;9.78;73.90;101777.06;5054172;28;20029;-87
2022/03/17 01:02:57;;;;;;;17.65;14.18;;;;;;;9.76;74.40;101787.25;5053854;28;20595;-87
2022/03/17 01:05:23;;;;;;;16.83;13.48;;;;;;;9.82;72.96;101789.22;5054359;28;20048;-87
2022/03/17 01:07:55;;;;;;;17.08;13.35;;;;;;;9.67;74.06;101772.13;5036212;28;20086;-87
2022/03/17 01:10:21;;;;;;;20.25;14.73;;;;;;;9.71;74.25;101781.53;5053917;28;20043;-87
2022/03/17 01:12:47;;;;;;;18.58;14.88;;;;;;;9.76;74.49;101778.28;5052712;28;20048;-88
2022/03/17 01:15:15;;;;;;;21.90;14.77;;;;;;;9.75;73.95;101772.00;5052339;28;20457;-87
2022/03/17 01:17:41;;;;;;;20.15;15.15;;;;;;;9.78;74.18;101778.94;5053753;28;20037;-87
2022/03/17 01:20:08;;;;;;;20.30;15.27;;;;;;;9.89;73.79;101780.31;5053821;28;20386;-87
2022/03/17 01:22:36;;;;;;;19.83;15.65;;;;;;;9.87;74.07;101771.56;5052526;28;20035;-87
2022/03/17 01:25:05;;;;;;;20.45;16.10;;;;;;;9.86;74.01;101767.97;5053858;28;20029;-88
2022/03/17 01:27:36;;;;;;;18.60;14.98;;;;;;;9.89;73.69;101773.06;5052865;28;20028;-88
2022/03/17 01:30:05;;;;;;;19.70;14.75;;;;;;;9.80;74.37;101772.31;5036121;28;20037;-87
2022/03/17 01:32:33;;;;;;;19.50;13.45;;;;;;;9.86;73.86;101769.84;5036364;28;20063;-88
2022/03/17 01:34:59;;;;;;;20.48;15.60;;;;;;;9.93;74.54;101776.22;5037331;28;20033;-88
2022/03/17 01:37:24;;;;;;;20.40;14.70;;;;;;;9.91;74.62;101764.72;5052841;28;20049;-88
2022/03/17 01:39:55;;;;;;;20.98;15.85;;;;;;;9.95;74.50;101772.28;5036535;28;20028;-88
2022/03/17 01:42:23;;;;;;;19.80;15.55;;;;;;;9.93;74.67;101765.38;5037004;28;20109;-88
2022/03/17 01:44:50;;;;;;;19.20;14.90;;;;;;;9.98;73.97;101768.34;5045633;28;20021;-88
2022/03/17 01:47:29;;;;;;;20.65;15.10;;;;;;;10.03;74.11;101771.34;5046548;28;20040;-88
2022/03/17 01:50:07;;;;;;;20.95;16.42;;;;;;;10.03;74.66;101773.22;5064376;28;20052;-87
2022/03/17 01:52:35;;;;;;;20.70;15.90;;;;;;;9.93;75.71;101778.94;5063294;28;20029;-88
2022/03/17 01:55:01;;;;;;;20.20;16.10;;;;;;;9.93;75.46;101768.91;5060100;28;20036;-88
2022/03/17 01:57:27;;;;;;;18.63;14.43;;;;;;;9.91;76.26;101776.41;5054896;28;20029;-88
2022/03/17 01:59:55;;;;;;;21.80;15.80;;;;;;;10.00;75.32;101769.84;5052745;28;20043;-88
2022/03/17 02:02:20;;;;;;;20.25;15.73;;;;;;;10.01;75.26;101773.41;5035780;28;20033;-88
2022/03/17 02:04:49;;;;;;;20.83;16.67;;;;;;;9.82;76.92;101762.09;5052515;28;20547;-88
2022/03/17 02:07:15;;;;;;;21.42;16.35;;;;;;;9.88;76.31;101767.81;5051985;28;20131;-88
2022/03/17 02:09:44;;;;;;;19.30;15.18;;;;;;;9.85;76.83;101771.75;5039843;28;20036;-87
2022/03/17 02:15:07;;;;;;;21.23;16.55;;;;;;;9.97;76.67;101791.91;5057969;28;20047;-88
2022/03/17 02:17:39;;;;;;;20.52;16.23;;;;;;;9.88;77.53;101784.09;5039473;28;20029;-88
2022/03/17 02:20:05;;;;;;;;;;;;;;;9.98;76.03;101787.31;5040837;28;20032;-88
2022/03/17 02:22:30;;;;;;;20.30;15.35;;;;;;;9.94;77.14;101792.28;5039313;28;19913;-88
2022/03/17 02:27:46;;;;;;;18.92;14.75;;;;;;;9.96;77.77;101797.53;5056990;28;20040;-88
2022/03/17 02:30:23;;;;;;;20.75;14.77;;;;;;;9.96;78.37;101797.53;5039377;28;20036;-88
2022/03/17 02:32:49;;;;;;;19.85;15.27;;;;;;;10.01;78.58;101805.94;5057042;28;20064;-87
2022/03/17 02:35:19;;;;;;;19.60;13.95;;;;;;;10.06;76.65;101806.22;5055372;28;20029;-86
2022/03/17 02:37:45;;;;;;;21.33;16.05;;;;;;;10.05;78.77;101809.94;5056530;28;20094;-88
2022/03/17 02:40:12;;;;;;;23.30;17.38;;;;;;;10.08;79.39;101822.28;5022650;28;20036;-88
2022/03/17 02:42:38;;;;;;;25.10;18.73;;;;;;;10.14;79.80;101816.97;5056372;28;20504;-88
2022/03/17 02:45:06;;;;;;;23.88;18.30;;;;;;;10.25;79.18;101820.22;5021958;28;20034;-87
2022/03/17 02:47:31;;;;;;;26.15;19.63;;;;;;;10.29;80.17;101830.50;5038571;28;20036;-87
2022/03/17 02:49:57;;;;;;;23.25;17.92;;;;;;;10.28;81.24;101826.09;5022097;28;20048;-88
2022/03/17 02:52:27;;;;;;;28.50;21.88;;;;;;;10.39;82.90;101830.22;5022083;28;20111;-88
2022/03/17 02:54:53;;;;;;;29.38;22.70;;;;;;;10.32;85.92;101846.41;5038978;28;20045;-89
2022/03/17 02:57:20;;;;;;;34.00;25.10;;;;;;;10.31;87.38;101855.56;5038435;28;20599;-88
2022/03/17 02:59:51;;;;;;;33.92;27.35;;;;;;;10.23;88.52;101854.81;5054751;28;20112;-88
2022/03/17 03:02:21;;;;;;;30.25;23.98;;;;;;;10.27;89.02;101878.66;5056099;28;20055;-88
2022/03/17 03:04:47;;;;;;;28.55;23.58;;;;;;;10.21;89.69;101859.59;5055936;28;20534;-87
2022/03/17 03:07:20;;;;;;;23.77;19.27;;;;;;;10.00;90.99;101872.88;5038594;28;20036;-87
2022/03/17 03:09:46;;;;;;;24.30;19.40;;;;;;;9.92;93.43;101880.25;5054996;28;20032;-87
2022/03/17 03:12:12;;;;;;;22.48;18.10;;;;;;;9.68;95.13;101884.06;5038513;28;20468;-88
2022/03/17 03:14:37;;;;;;;21.10;16.27;;;;;;;9.61;95.69;101898.34;5055917;28;20021;-87
2022/03/17 03:17:14;;;;;;;17.65;15.18;;;;;;;9.43;97.09;101895.97;5038722;28;20036;-87
2022/03/17 03:19:40;;;;;;;20.33;16.35;;;;;;;9.27;100.00;101915.91;5038549;28;20053;-87
2022/03/17 03:22:08;;;;;;;17.65;14.48;;;;;;;9.20;99.35;101917.63;5038068;28;20032;-88
2022/03/17 03:24:41;;;;;;;17.33;13.10;;;;;;;9.15;100.00;101920.03;5054686;28;20120;-87
2022/03/17 03:27:09;;;;;;;16.67;13.95;;;;;;;9.12;99.59;101917.69;5038069;28;20064;-88
2022/03/17 03:29:34;;;;;;;17.95;14.35;;;;;;;9.02;100.00;101936.88;5055403;28;20469;-88
2022/03/17 03:32:04;;;;;;;17.02;13.93;;;;;;;8.99;100.00;101942.66;5021401;28;20039;-88
2022/03/17 03:34:36;;;;;;;16.52;13.63;;;;;;;8.88;100.00;101959.28;5037717;28;20037;-88
2022/03/17 03:37:22;;;;;;;15.60;13.18;;;;;;;8.76;100.00;101945.31;5055576;28;20079;-88
2022/03/17 03:39:52;;;;;;;15.45;13.27;;;;;;;8.72;100.00;101952.91;5055137;28;20120;-88
2022/03/17 03:42:17;;;;;;;15.70;13.68;;;;;;;8.66;100.00;101950.91;5037801;28;20087;-89
2022/03/17 03:44:45;;;;;;;18.42;15.85;;;;;;;8.69;100.00;101984.91;5037570;28;20029;-86
2022/03/17 03:47:13;;;;;;;20.48;16.60;;;;;;;8.53;100.00;101981.25;5053715;28;20037;-87
2022/03/17 03:49:40;;;;;;;21.13;17.60;;;;;;;8.46;100.00;101987.50;5037312;28;20073;-87
2022/03/17 03:52:13;;;;;;;19.88;17.08;;;;;;;8.41;100.00;101996.97;5054066;28;20021;-87
2022/03/17 03:54:39;;;;;;;23.95;19.58;;;;;;;8.33;100.00;102015.06;5037602;28;20086;-86
2022/03/17 03:57:06;;;;;;;22.27;18.83;;;;;;;8.33;100.00;102010.50;5053731;28;20108;-86
2022/03/17 03:59:32;;;;;;;21.65;18.17;;;;;;;8.24;100.00;102028.59;5055046;28;20025;-86
2022/03/17 04:02:04;;;;;;;23.83;20.30;;;;;;;8.18;100.00;102041.94;5053433;28;20465;-86
2022/03/17 04:04:34;;;;;;;23.77;18.83;;;;;;;8.10;100.00;102042.78;5053344;28;20141;-86
2022/03/17 04:07:05;;;;;;;24.83;20.05;;;;;;;7.99;100.00;102044.00;5037501;28;20427;-86
2022/03/17 04:09:35;;;;;;;24.05;19.77;;;;;;;7.94;100.00;102061.72;5037298;28;20385;-85
2022/03/17 04:12:03;;;;;;;24.48;18.25;;;;;;;7.84;100.00;102065.44;5037284;28;20093;-85
2022/03/17 04:14:30;;;;;;;23.90;18.38;;;;;;;7.85;100.00;102074.38;5037625;28;20025;-86
2022/03/17 04:16:56;;;;;;;25.15;19.17;;;;;;;7.80;100.00;102079.44;5053381;28;20044;-84
2022/03/17 04:19:21;;;;;;;24.05;18.38;;;;;;;7.76;100.00;102091.59;5055542;28;20029;-86
2022/03/17 04:21:48;;;;;;;25.25;19.13;;;;;;;7.70;100.00;102095.81;5036365;28;20056;-86
2022/03/17 04:24:15;;;;;;;22.90;17.80;;;;;;;7.64;100.00;102110.81;5036660;28;20179;-85
2022/03/17 04:26:41;;;;;;;27.90;19.38;;;;;;;7.58;100.00;102110.66;5037145;28;20595;-86
2022/03/17 04:29:11;;;;;;;22.92;17.50;;;;;;;7.49;100.00;102117.88;5052969;28;20103;-85
2022/03/17 04:31:41;;;;;;;24.27;17.08;;;;;;;7.44;100.00;102148.06;5052407;28;20372;-86
2022/03/17 04:34:08;;;;;;;25.63;18.35;;;;;;;7.37;100.00;102130.81;5052827;28;20110;-86
2022/03/17 04:36:35;;;;;;;25.40;18.88;;;;;;;7.35;100.00;102163.41;5053063;28;20124;-86
2022/03/17 04:39:02;;;;;;;27.52;19.55;;;;;;;7.33;100.00;102153.75;5052961;28;20033;-85
2022/03/17 04:41:28;;;;;;;25.42;17.38;;;;;;;7.32;100.00;102162.84;5053291;28;20033;-85
2022/03/17 04:43:53;;;;;;;26.40;17.45;;;;;;;7.29;100.00;102165.88;5036476;28;20039;-85
2022/03/17 04:46:20;;;;;;;30.23;18.00;;;;;;;7.24;99.92;102171.75;5019681;28;20033;-85
2022/03/17 04:48:46;;;;;;;25.40;16.15;;;;;;;7.21;99.76;102177.50;5036844;28;20427;-84
2022/03/17 04:51:11;;;;;;;24.25;15.18;;;;;;;7.20;98.85;102187.44;5054221;28;20125;-85
2022/03/17 04:53:39;;;;;;;24.00;13.95;;;;;;;7.20;97.85;102214.44;5019969;28;20132;-85
2022/03/17 04:56:10;;;;;;;22.20;12.80;;;;;;;7.18;97.42;102200.25;5020487;28;20029;-85
2022/03/17 04:58:38;;;;;;;21.23;13.73;;;;;;;7.18;96.54;102204.81;5035974;28;20033;-85
2022/03/17 05:01:05;;;;;;;27.00;14.73;;;;;;;7.18;95.96;102221.84;5052726;28;20037;-85
2022/03/17 05:03:31;;;;;;;20.02;13.27;;;;;;;7.17;95.67;102217.44;5035810;28;20047;-85
2022/03/17 05:05:57;;;;;;;23.10;14.73;;;;;;;7.18;95.01;102223.69;5052896;28;20144;-85
2022/03/17 05:08:23;;;;;;;21.05;13.57;;;;;;;7.19;95.40;102233.50;5035940;28;20484;-86
2022/03/17 05:10:52;;;;;;;23.65;14.15;;;;;;;7.19;95.25;102249.69;5035690;28;20049;-85
2022/03/17 05:13:19;;;;;;;23.40;13.30;;;;;;;7.19;94.70;102253.22;5036459;28;20029;-86
2022/03/17 05:15:48;;;;;;;16.42;11.02;;;;;;;7.18;93.77;102265.03;5035394;28;20036;-85
2022/03/17 05:18:13;;;;;;;18.67;11.00;;;;;;;7.24;93.54;102284.31;5035894;28;20025;-85
2022/03/17 05:20:43;;;;;;;21.58;10.75;;;;;;;7.14;92.00;102287.94;5035639;28;20048;-86
2022/03/17 05:23:10;;;;;;;19.75;9.90;;;;;;;7.11;90.95;102298.22;5035901;28;20037;-86
2022/03/17 05:25:38;;;;;;;15.63;8.70;;;;;;;7.10;90.66;102288.41;5052325;28;20029;-85
2022/03/17 05:28:05;;;;;;;15.50;6.97;;;;;;;7.08;89.83;102291.28;5053634;28;20086;-85
2022/03/17 05:30:31;;;;;;;11.82;6.38;;;;;;;7.11;89.96;102300.91;5052016;28;20033;-86
2022/03/17 05:32:57;;;;;;;11.45;5.55;;;;;;;7.07;88.43;102313.88;5019285;28;20040;-85
2022/03/17 05:35:26;;;;;;;15.57;6.45;;;;;;;7.03;88.24;102304.41;5035621;28;20112;-85
2022/03/17 05:37:55;;;;;;;14.20;5.75;;;;;;;7.00;88.11;102316.34;5051709;28;20033;-85
2022/03/17 05:40:21;;;;;;;11.52;4.88;;;;;;;7.02;87.93;102327.00;5051987;28;20526;-86
2022/03/17 05:42:55;;;;;;;12.27;5.18;;;;;;;7.03;87.07;102332.22;5054634;28;20056;-86
2022/03/17 05:45:22;;;;;;;12.05;4.88;;;;;;;7.02;86.80;102346.72;5040422;28;20050;-85
2022/03/17 05:47:55;;;;;;;10.57;4.75;;;;;;;7.06;86.53;102355.38;5023112;28;20044;-86
2022/03/17 05:50:24;;;;;;;12.82;4.13;;;;;;;7.06;86.56;102347.28;5039015;28;20492;-85
2022/03/17 05:52:51;;;;;;;11.15;4.53;;;;;;;7.09;85.48;102354.22;5056206;28;20465;-86
2022/03/17 05:55:19;;;;;;;8.65;4.20;;;;;;;7.07;85.45;102359.78;5056385;28;20128;-86
2022/03/17 05:57:46;;;;;;;10.30;5.07;;;;;;;7.14;85.39;102368.06;5056776;28;20037;-85
2022/03/17 06:00:28;;;;;;;10.35;4.78;;;;;;;7.09;85.08;102382.03;5039311;28;20029;-85
2022/03/17 06:02:54;;;;;;;8.20;4.35;;;;;;;7.11;85.54;102379.19;5056075;28;20086;-85
2022/03/17 06:05:21;;;;;;;4.78;3.75;;;;;;;7.12;85.81;102389.00;5055753;28;20093;-85
2022/03/17 06:07:48;;;;;;;10.48;4.57;;;;;;;7.13;85.56;102391.53;5055803;28;20029;-85
2022/03/17 06:10:21;;;;;;;11.00;5.03;;;;;;;7.01;86.46;102401.72;5022765;28;20033;-86
2022/03/17 06:12:49;;;;;;;9.07;4.13;;;;;;;7.01;86.69;102414.34;5039872;28;20045;-86
2022/03/17 06:15:15;;;;;;;9.52;4.30;;;;;;;7.01;87.68;102417.03;5055714;28;20119;-83
2022/03/17 06:17:49;;;;;;;11.10;4.82;;;;;;;6.96;88.64;102432.84;5055931;28;20021;-83
2022/03/17 06:20:20;;;;;;;14.25;4.65;;;;;;;6.91;88.53;102427.06;5055874;28;20027;-83
2022/03/17 06:22:48;;;;;;;10.20;4.70;;;;;;;6.82;89.35;102437.78;5057017;28;20025;-83
2022/03/17 06:25:16;;;;;;;8.52;4.13;;;;;;;6.85;89.48;102442.03;5055248;28;20021;-84
2022/03/17 06:27:43;;;;;;;9.20;4.32;;;;;;;7.00;88.82;102447.75;5022458;28;20031;-84
2022/03/17 06:30:14;;;;;;;6.55;4.03;;;;;;;6.99;88.37;102446.03;5055643;28;20175;-83
2022/03/17 06:32:41;;;;;;;7.25;4.00;;;;;;;7.02;87.98;102454.66;5022850;28;20045;-84
2022/03/17 06:35:17;;;;;;;7.75;3.97;;;;;;;7.06;87.82;102466.03;5038642;28;20127;-84
2022/03/17 06:37:44;;;;;;;8.23;4.15;;;;;;;7.07;86.75;102466.88;5055027;28;20024;-84
2022/03/17 06:40:10;;;;;;;9.35;4.00;;;;;;;7.03;86.48;102472.56;5055136;28;20465;-85
2022/03/17 06:42:36;;;;;;;7.85;3.65;;;;;;;7.03;86.76;102479.81;5037898;28;20040;-82
2022/03/17 06:45:04;;;;;;;5.78;3.80;;;;;;;7.05;86.25;102485.91;5038664;28;20037;-85
2022/03/17 06:47:30;;;;;;;10.13;4.20;;;;;;;7.06;85.35;102493.00;5054851;28;20039;-85
2022/03/17 06:49:55;;;;;;;7.63;3.70;;;;;;;7.07;85.84;102504.66;5051322;28;20053;-86
2022/03/17 06:52:22;;;;;;;7.28;3.67;;;;;;;7.08;85.64;102503.66;5050149;28;20517;-85
2022/03/17 06:54:48;;;;;;;7.50;3.63;;;;;;;7.17;85.40;102505.44;5035548;28;20037;-85
2022/03/17 06:57:22;;;;;;;6.95;3.63;;;;;;;7.12;85.25;102522.09;5034550;28;20029;-86
2022/03/17 06:59:48;;;;;;;7.15;3.53;;;;;;;7.12;85.38;102516.69;5051166;28;20541;-84
2022/03/17 07:02:14;;;;;;;4.65;3.00;;;;;;;7.18;84.22;102526.03;5050801;28;20535;-84
2022/03/17 07:04:40;;;;;;;5.30;2.90;;;;;;;7.31;84.32;102544.59;5034162;28;20129;-85
2022/03/17 07:07:07;;;;;;;7.15;2.92;;;;;;;7.29;83.07;102541.16;5017835;28;20057;-85
2022/03/17 07:09:32;;;;;;;7.22;2.55;;;;;;;7.29;81.64;102530.38;5051003;28;20072;-84
2022/03/17 07:11:58;;;;;;;5.97;2.20;;;;;;;7.30;81.70;102553.69;5034672;28;20099;-84
2022/03/17 07:14:26;;;;;;;7.13;2.17;;;;;;;7.33;81.34;102551.50;5033330;28;20030;-85
2022/03/17 07:16:52;;;;;;;6.40;2.05;;;;;;;7.26;80.33;102558.50;5034167;28;20017;-85
2022/03/17 07:19:20;;;;;;;4.05;1.83;;;;;;;7.28;80.52;102561.06;5050664;28;20527;-84
2022/03/17 07:21:45;;;;;;;7.28;2.38;;;;;;;7.20;80.65;102569.91;5033660;28;20029;-86
2022/03/17 07:24:11;;;;;;;5.18;2.35;;;;;;;7.17;81.74;102571.06;5033564;28;20501;-84
2022/03/17 07:26:40;;;;;;;4.53;1.80;;;;;;;7.17;81.95;102568.38;5050093;28;20069;-84
2022/03/17 07:29:05;;;;;;;6.20;2.10;;;;;;;7.16;82.15;102587.41;5049941;28;20367;-84
2022/03/17 07:31:31;;;;;;;6.38;2.50;;;;;;;7.18;82.52;102586.28;5033725;28;20032;-85
2022/03/17 07:33:57;;;;;;;5.03;2.08;;;;;;;7.20;82.09;102603.19;5034888;28;20026;-85
2022/03/17 07:36:22;;;;;;;5.75;2.10;;;;;;;7.26;82.91;102614.38;5033530;28;20057;-85
2022/03/17 07:38:54;;;;;;;6.72;2.20;;;;;;;7.29;82.14;102605.97;5033277;28;20025;-85
2022/03/17 07:41:19;;;;;;;7.22;2.00;;;;;;;7.35;81.72;102617.03;5050187;28;20082;-86
2022/03/17 07:43:53;;;;;;;4.05;1.90;;;;;;;7.43;81.38;102620.84;5016710;28;20025;-84
2022/03/17 07:46:22;;;;;;;4.50;1.63;;;;;;;7.47;81.13;102633.00;5051069;28;20166;-85
2022/03/17 07:48:47;;;;;;;6.15;1.52;;;;;;;7.52;80.48;102617.22;5033068;28;20547;-84
2022/03/17 07:51:18;;;;;;;5.53;1.80;;;;;;;7.55;79.88;102631.25;5016503;28;20136;-84
2022/03/17 07:53:44;;;;;;;5.18;1.90;;;;;;;7.59;79.52;102631.81;5016806;28;20038;-84
2022/03/17 07:56:21;;;;;;;6.03;1.92;;;;;;;7.64;79.46;102636.75;5016161;28;20095;-84
2022/03/17 07:58:47;;;;;;;4.97;1.60;;;;;;;7.65;78.94;102646.56;5050087;28;20202;-84
2022/03/17 08:01:13;;;;;;;6.97;2.05;;;;;;;7.68;78.27;102643.56;5033154;28;20033;-85
2022/03/17 08:03:40;;;;;;;5.05;1.70;;;;;;;7.76;78.30;102648.19;5049750;28;20021;-84
2022/03/17 08:06:05;;;;;;;4.63;1.60;;;;;;;7.91;78.25;102657.47;5048863;28;20057;-85
2022/03/17 08:08:31;;;;;;;6.13;1.65;;;;;;;7.96;76.53;102660.56;5050239;28;20481;-85
2022/03/17 08:10:57;;;;;;;6.15;1.52;;;;;;;8.02;76.78;102669.94;5033280;28;20041;-84
2022/03/17 08:13:25;;;;;;;3.35;1.25;;;;;;;8.09;76.96;102662.91;5033651;28;20083;-84
2022/03/17 08:15:51;;;;;;;5.63;1.63;;;;;;;8.13;76.06;102674.25;5050103;28;20128;-84
2022/03/17 08:18:16;;;;;;;5.53;1.85;;;;;;;8.13;74.15;102679.66;5033337;28;20029;-83
2022/03/17 08:20:42;;;;;;;7.70;1.67;;;;;;;8.15;74.21;102674.94;5033273;28;20033;-84
2022/03/17 08:23:09;;;;;;;7.38;1.88;;;;;;;8.16;73.95;102687.44;5016633;28;20030;-84
2022/03/17 08:25:35;;;;;;;5.47;1.75;;;;;;;8.28;73.47;102691.63;5034067;28;20060;-83
2022/03/17 08:28:02;;;;;;;3.60;1.40;;;;;;;8.47;73.89;102712.28;5049809;28;20034;-83
2022/03/17 08:30:29;;;;;;;10.25;1.65;;;;;;;8.61;70.88;102710.88;5033432;28;20025;-84
2022/03/17 08:32:55;;;;;;;6.65;1.45;;;;;;;8.72;71.21;102723.31;5034303;28;20026;-84
2022/03/17 08:35:20;;;;;;;8.27;1.70;;;;;;;8.95;70.72;102705.53;5033258;28;20053;-84
2022/03/17 08:37:46;;;;;;;4.28;1.45;;;;;;;8.91;68.62;102722.28;5049608;28;20033;-84
2022/03/17 08:40:15;;;;;;;9.68;1.98;;;;;;;8.83;66.00;102727.59;4999978;28;20132;-84
2022/03/17 08:42:41;;;;;;;4.50;1.38;;;;;;;8.85;66.24;102728.31;5016383;28;20044;-84
2022/03/17 08:50:40;;;;;;;5.50;1.45;;;;;;;9.15;64.54;102756.78;5032876;28;20072;-84
2022/03/17 08:53:06;;;;;;;6.13;1.42;;;;;;;9.39;65.19;102744.38;5032824;28;20124;-85
2022/03/17 08:55:31;;;;;;;6.18;1.55;;;;;;;9.34;62.89;102744.03;5016173;28;20497;-85
2022/03/17 08:57:57;;;;;;;4.05;1.45;;;;;;;9.36;63.37;102756.41;5032484;28;20037;-85
2022/03/17 09:00:23;;;;;;;6.03;1.65;;;;;;;9.27;62.86;102757.34;5016207;28;20045;-84
2022/03/17 09:02:49;;;;;;;3.50;1.52;;;;;;;9.27;63.46;102758.22;5049507;28;20060;-83
2022/03/17 09:05:15;;;;;;;6.45;1.73;;;;;;;9.36;62.52;102753.72;5015998;28;20057;-87
2022/03/17 09:07:46;;;;;;;4.95;1.80;;;;;;;9.28;63.21;102770.72;5032359;28;20080;-84
2022/03/17 09:10:12;;;;;;;7.70;2.13;;;;;;;9.24;62.09;102772.09;5032237;28;20485;-84
2022/03/17 09:12:38;;;;;;;6.32;1.75;;;;;;;9.15;62.08;102775.72;5032366;28;20037;-84
2022/03/17 09:15:08;;;;;;;6.03;1.50;;;;;;;9.25;62.40;102778.34;5033582;28;20029;-84
2022/03/17 09:17:33;;;;;;;7.43;1.63;;;;;;;9.26;62.46;102780.06;5032103;28;20029;-84
2022/03/17 09:19:59;;;;;;;5.88;1.33;;;;;;;9.33;61.93;102789.25;5015650;28;20033;-84
2022/03/17 09:22:24;;;;;;;4.53;1.50;;;;;;;9.46;62.85;102800.50;5016824;28;20454;-84
2022/03/17 09:24:49;;;;;;;3.88;1.42;;;;;;;9.56;62.26;102796.81;5032016;28;20191;-85
2022/03/17 09:27:16;;;;;;;7.03;1.58;;;;;;;9.54;61.67;102798.84;5032482;28;20044;-85
2022/03/17 09:29:41;;;;;;;6.38;1.67;;;;;;;9.59;61.20;102807.34;5048627;28;20065;-84
2022/03/17 09:32:09;;;;;;;5.57;1.63;;;;;;;9.62;60.77;102798.88;5032457;28;20122;-84
2022/03/17 09:34:38;;;;;;;6.57;1.85;;;;;;;9.65;59.87;102794.00;5015629;28;20033;-84
2022/03/17 09:37:03;;;;;;;4.88;1.63;;;;;;;9.70;60.99;102808.91;5032619;28;20120;-84
2022/03/17 09:39:45;;;;;;;6.28;1.80;;;;;;;9.76;60.45;102819.13;5032874;28;20584;-85
2022/03/17 09:42:15;;;;;;;4.43;1.30;;;;;;;9.80;60.51;102818.63;5017962;28;20049;-85
2022/03/17 09:44:46;;;;;;;4.05;1.45;;;;;;;9.92;60.24;102816.50;5048675;28;20037;-86
2022/03/17 09:47:19;;;;;;;6.55;1.40;;;;;;;9.93;60.20;102822.75;5032150;28;20068;-85
2022/03/17 09:49:46;;;;;;;;;;;;;;;9.99;59.91;102822.97;5039377;28;20098;-85
2022/03/17 09:52:17;;;;;;;7.40;1.90;;;;;;;10.04;59.06;102827.91;5035309;28;19966;-85
2022/03/17 09:54:44;;;;;;;6.45;1.23;;;;;;;10.17;59.98;102835.53;5051928;28;20029;-84
2022/03/17 09:57:10;;;;;;;7.47;1.73;;;;;;;10.23;58.99;102844.91;5052655;28;20025;-85
2022/03/17 09:59:36;;;;;;;6.82;1.90;;;;;;;10.26;58.63;102845.44;5034739;28;20472;-84
2022/03/17 10:02:03;;;;;;;6.55;1.65;;;;;;;10.25;59.35;102842.88;5018611;28;20033;-84
2022/03/17 10:04:33;;;;;;;3.80;1.52;;;;;;;10.09;59.39;102862.66;5051925;28;20520;-86
2022/03/17 10:07:01;;;;;;;8.30;1.90;;;;;;;10.02;59.05;102865.16;5051835;28;20037;-84
2022/03/17 10:09:30;;;;;;;6.78;2.00;;;;;;;10.06;59.70;102865.69;5035207;28;20032;-84
2022/03/17 10:12:01;;;;;;;6.10;1.70;;;;;;;10.22;59.78;102875.78;5002073;28;20464;-83
2022/03/17 10:14:49;;;;;;;5.07;1.33;;;;;;;10.28;59.36;102878.66;5051486;28;20029;-83
2022/03/17 10:17:38;;;;;;;5.15;1.80;;;;;;;10.31;58.62;102882.94;5051538;28;20121;-84
2022/03/17 10:20:22;;;;;;;4.30;1.40;;;;;;;10.44;58.66;102891.47;5051634;28;20036;-83
2022/03/17 10:23:01;;;;;;;5.95;1.55;;;;;;;10.49;58.08;102893.69;5035617;28;20037;-84
2022/03/17 10:25:32;;;;;;;2.28;1.02;;;;;;;10.51;58.13;102897.97;5051889;28;20033;-83
2022/03/17 10:27:59;;;;;;;4.70;1.30;;;;;;;10.59;57.18;102904.44;5052256;28;20362;-84
2022/03/17 10:30:35;;;;;;;5.13;1.50;;;;;;;10.70;56.99;102904.09;5055401;28;20033;-83
2022/03/17 10:33:16;;;;;;;7.22;1.67;;;;;;;10.79;57.01;102899.53;5056136;28;20048;-83
2022/03/17 10:35:46;;;;;;;3.85;1.17;;;;;;;10.93;57.09;102917.06;5055248;28;20029;-83
2022/03/17 10:38:27;;;;;;;4.65;1.35;;;;;;;10.98;55.70;102911.97;5056291;28;20489;-84
2022/03/17 10:41:00;;;;;;;7.47;1.60;;;;;;;10.79;57.19;102921.25;5039349;28;20488;-84
2022/03/17 10:43:26;;;;;;;3.17;1.17;;;;;;;10.95;57.44;102928.59;5054949;28;20473;-83
2022/03/17 10:46:22;;;;;;;5.78;1.25;;;;;;;10.92;57.16;102923.50;5038324;28;20037;-83
2022/03/17 10:49:05;;;;;;;4.03;1.30;;;;;;;11.12;57.24;102934.91;5055367;28;20029;-83
2022/03/17 10:51:42;;;;;;;5.13;1.88;;;;;;;11.12;56.38;102934.91;5038366;28;20057;-83
2022/03/17 10:54:19;;;;;;;4.80;1.80;;;;;;;10.90;56.02;102937.25;5055499;28;20111;-82
2022/03/17 10:57:03;;;;;;;4.90;1.90;;;;;;;10.68;57.55;102950.41;5038254;28;20061;-82
2022/03/17 10:59:48;;;;;;;5.85;1.85;;;;;;;10.58;58.11;102957.00;5054425;28;20032;-83
2022/03/17 11:02:21;;;;;;;7.07;1.92;;;;;;;10.35;58.18;102969.28;5054753;28;20079;-83
2022/03/17 11:04:47;;;;;;;4.60;1.88;;;;;;;10.23;57.42;102966.97;5039239;28;20048;-82
2022/03/17 11:07:15;;;;;;;3.75;1.48;;;;;;;10.31;57.89;102975.19;5053933;28;20124;-83
2022/03/17 11:09:42;;;;;;;5.75;1.70;;;;;;;10.61;55.77;102979.22;5054338;28;20033;-83
2022/03/17 11:12:09;;;;;;;6.10;1.67;;;;;;;10.94;53.35;102986.63;5054220;28;20035;-83
2022/03/17 11:14:55;;;;;;;6.45;1.70;;;;;;;11.17;53.25;102978.72;5038080;28;20041;-83
2022/03/17 11:17:29;;;;;;;3.63;1.45;;;;;;;11.60;51.93;102982.16;5036811;28;20045;-82
2022/03/17 11:20:02;;;;;;;3.47;1.20;;;;;;;11.87;50.23;102990.97;5054704;28;20056;-83
2022/03/17 11:22:32;;;;;;;3.45;1.50;;;;;;;12.02;51.50;102992.00;5037322;28;20116;-83
2022/03/17 11:25:23;;;;;;;2.55;1.17;;;;;;;12.38;50.86;102994.28;5038673;28;20056;-83
2022/03/17 11:27:50;;;;;;;2.67;1.20;;;;;;;12.49;49.06;102992.22;5054705;28;20047;-83
2022/03/17 11:30:17;;;;;;;4.40;1.35;;;;;;;12.44;49.20;102998.19;5053830;28;20024;-83
2022/03/17 11:32:58;;;;;;;6.03;1.70;;;;;;;12.48;49.47;103001.44;5037388;28;20059;-83
2022/03/17 11:35:32;;;;;;;3.85;1.30;;;;;;;12.78;49.87;102997.91;5054358;28;20123;-83
2022/03/17 11:38:17;;;;;;;1.98;1.05;;;;;;;13.23;47.66;103000.00;5055652;28;20083;-83
2022/03/17 11:41:05;;;;;;;6.15;1.58;;;;;;;13.33;47.80;103006.94;5053726;28;20020;-84